createdAt,value
2017-10-26T00:01:21.806Z,3.00
2017-10-26T00:03:50.767Z,3.90
2017-10-26T00:06:19.732Z,3.87
2017-10-26T00:08:47.839Z,4.25
2017-10-26T00:11:16.858Z,5.43
2017-10-26T00:13:44.971Z,4.37
2017-10-26T00:16:14.609Z,4.30
2017-10-26T00:18:43.492Z,3.97
2017-10-26T00:21:12.403Z,3.53
2017-10-26T00:23:40.630Z,4.60
2017-10-26T00:26:08.730Z,3.55
2017-10-26T00:28:37.623Z,3.10
2017-10-26T00:31:06.514Z,3.85
2017-10-26T00:33:34.638Z,4.05
2017-10-26T00:36:02.858Z,3.42
2017-10-26T00:38:31.751Z,4.70
2017-10-26T00:41:00.644Z,3.90
2017-10-26T00:43:28.794Z,4.65
2017-10-26T00:45:56.924Z,4.35
2017-10-26T00:48:25.080Z,3.53
2017-10-26T00:50:53.199Z,2.85
2017-10-26T00:53:21.495Z,3.85
2017-10-26T00:55:49.674Z,3.55
2017-10-26T00:58:17.817Z,4.40
2017-10-26T01:00:45.918Z,4.32
2017-10-26T01:03:14.086Z,2.63
2017-10-26T01:05:43.075Z,3.00
2017-10-26T01:08:12.000Z,3.03
2017-10-26T01:10:40.153Z,2.75
2017-10-26T01:13:09.174Z,5.07
2017-10-26T01:15:37.288Z,2.60
2017-10-26T01:18:05.412Z,3.65
2017-10-26T01:20:33.537Z,4.32
2017-10-26T01:23:02.450Z,2.93
2017-10-26T01:25:31.451Z,3.15
2017-10-26T01:27:59.578Z,2.80
2017-10-26T01:30:27.710Z,3.35
2017-10-26T01:32:55.838Z,6.00
2017-10-26T01:35:23.969Z,5.12
2017-10-26T01:37:52.102Z,3.30
2017-10-26T01:40:20.236Z,3.40
2017-10-26T01:42:48.382Z,4.20
2017-10-26T01:45:16.492Z,3.37
2017-10-26T01:47:44.655Z,2.90
2017-10-26T01:50:12.802Z,6.95
2017-10-26T01:52:40.936Z,3.77
2017-10-26T01:55:10.076Z,3.33
2017-10-26T01:57:38.280Z,4.20
2017-10-26T02:00:06.430Z,3.75
2017-10-26T02:02:34.560Z,3.90
2017-10-26T02:05:02.739Z,3.92
2017-10-26T02:07:30.902Z,3.50
2017-10-26T02:09:59.810Z,3.30
2017-10-26T02:12:28.784Z,4.00
2017-10-26T02:14:57.662Z,3.58
2017-10-26T02:17:26.557Z,4.27
2017-10-26T02:19:54.710Z,3.40
2017-10-26T02:22:22.850Z,4.27
2017-10-26T02:24:50.984Z,3.37
2017-10-26T02:27:19.140Z,6.90
2017-10-26T02:30:00.030Z,5.97
2017-10-26T02:32:28.169Z,6.13
2017-10-26T02:34:56.332Z,6.87
2017-10-26T02:37:24.464Z,9.37
2017-10-26T02:39:52.609Z,7.10
2017-10-26T02:42:21.508Z,11.37
2017-10-26T02:44:49.652Z,11.82
2017-10-26T02:47:18.547Z,14.90
2017-10-26T02:49:47.439Z,18.35
2017-10-26T02:52:16.338Z,19.13
2017-10-26T02:54:45.261Z,21.02
2017-10-26T02:57:13.403Z,19.77
2017-10-26T02:59:42.315Z,20.42
2017-10-26T03:02:10.443Z,19.17
2017-10-26T03:04:38.588Z,14.98
2017-10-26T03:07:06.748Z,19.63
2017-10-26T03:09:34.962Z,18.58
2017-10-26T03:12:03.114Z,17.40
2017-10-26T03:14:31.249Z,17.10
2017-10-26T03:16:59.411Z,16.12
2017-10-26T03:19:27.554Z,16.10
2017-10-26T03:21:55.685Z,14.65
2017-10-26T03:24:23.821Z,14.60
2017-10-26T03:26:52.708Z,12.57
2017-10-26T03:29:20.859Z,16.40
2017-10-26T03:31:48.995Z,10.67
2017-10-26T03:34:17.134Z,11.98
2017-10-26T03:36:45.274Z,12.03
2017-10-26T03:39:13.789Z,11.40
2017-10-26T03:41:42.669Z,11.70
2017-10-26T03:44:11.568Z,13.50
2017-10-26T03:46:40.490Z,13.30
2017-10-26T03:49:08.629Z,11.05
2017-10-26T03:51:36.779Z,11.20
2017-10-26T03:54:05.675Z,10.15
2017-10-26T03:56:34.579Z,12.43
2017-10-26T03:59:02.756Z,10.93
2017-10-26T04:01:31.649Z,9.73
2017-10-26T04:03:59.767Z,9.98
2017-10-26T04:06:27.894Z,10.77
2017-10-26T04:08:56.043Z,8.25
2017-10-26T04:11:25.250Z,10.37
2017-10-26T04:13:54.150Z,11.00
2017-10-26T04:16:23.056Z,10.57
2017-10-26T04:18:51.198Z,13.25
2017-10-26T04:21:20.092Z,11.07
2017-10-26T04:23:48.991Z,18.52
2017-10-26T04:26:17.143Z,16.87
2017-10-26T04:28:46.089Z,22.52
2017-10-26T04:31:14.218Z,18.12
2017-10-26T04:33:42.373Z,17.48
2017-10-26T04:36:11.389Z,22.10
2017-10-26T04:38:40.275Z,25.17
2017-10-26T04:41:08.416Z,31.12
2017-10-26T04:43:36.649Z,26.33
2017-10-26T04:46:04.795Z,25.05
2017-10-26T04:48:33.005Z,21.73
2017-10-26T04:51:01.140Z,23.90
2017-10-26T04:53:30.086Z,23.10
2017-10-26T04:55:58.230Z,23.05
2017-10-26T04:58:26.405Z,25.00
2017-10-26T05:00:55.576Z,24.87
2017-10-26T05:03:24.483Z,19.27
2017-10-26T05:05:52.615Z,25.62
2017-10-26T05:08:20.802Z,21.08
2017-10-26T05:10:49.767Z,22.20
2017-10-26T05:13:17.894Z,18.87
2017-10-26T05:15:46.027Z,17.12
2017-10-26T05:18:14.167Z,15.80
2017-10-26T05:20:42.370Z,18.70
2017-10-26T05:23:10.525Z,19.73
2017-10-26T05:25:38.665Z,13.15
2017-10-26T05:28:06.792Z,15.33
2017-10-26T05:30:34.954Z,13.65
2017-10-26T05:33:03.189Z,10.47
2017-10-26T05:35:31.350Z,11.35
2017-10-26T05:38:00.269Z,11.27
2017-10-26T05:40:28.401Z,14.85
2017-10-26T05:42:57.371Z,10.35
2017-10-26T05:45:25.545Z,10.85
2017-10-26T05:47:53.697Z,9.25
2017-10-26T05:50:21.830Z,10.45
2017-10-26T05:52:49.963Z,12.60
2017-10-26T05:55:18.861Z,9.93
2017-10-26T05:57:46.995Z,11.27
2017-10-26T06:00:15.122Z,9.20
2017-10-26T06:02:43.247Z,8.87
2017-10-26T06:05:11.368Z,8.77
2017-10-26T06:07:39.562Z,8.40
2017-10-26T06:10:07.675Z,7.55
2017-10-26T06:12:35.868Z,6.30
2017-10-26T06:15:04.764Z,7.10
2017-10-26T06:17:33.750Z,8.17
2017-10-26T06:20:02.774Z,6.20
2017-10-26T06:22:30.885Z,7.60
2017-10-26T06:24:59.119Z,6.93
2017-10-26T06:27:27.997Z,5.70
2017-10-26T06:29:56.138Z,6.72
2017-10-26T06:32:24.309Z,6.20
2017-10-26T06:34:53.972Z,5.72
2017-10-26T06:37:22.144Z,6.07
2017-10-26T06:39:50.288Z,5.30
2017-10-26T06:42:18.434Z,7.82
2017-10-26T06:44:46.603Z,4.32
2017-10-26T06:47:14.744Z,8.07
2017-10-26T06:49:42.859Z,4.57
2017-10-26T06:52:11.788Z,5.00
2017-10-26T06:54:39.929Z,4.20
2017-10-26T06:57:08.819Z,4.13
2017-10-26T06:59:37.710Z,3.85
2017-10-26T07:02:06.616Z,2.40
2017-10-26T07:04:34.788Z,2.83
2017-10-26T07:07:03.222Z,5.60
2017-10-26T07:09:31.341Z,2.87
2017-10-26T07:11:59.519Z,6.68
2017-10-26T07:14:28.408Z,2.67
2017-10-26T07:16:56.535Z,3.25
2017-10-26T07:19:24.662Z,3.65
2017-10-26T07:21:52.784Z,2.33
2017-10-26T07:24:20.913Z,2.55
2017-10-26T07:26:49.025Z,3.53
2017-10-26T07:29:17.148Z,2.60
2017-10-26T07:31:45.273Z,2.10
2017-10-26T07:34:13.476Z,3.62
2017-10-26T07:36:41.631Z,4.50
2017-10-26T07:39:10.523Z,1.62
2017-10-26T07:41:39.432Z,2.40
2017-10-26T07:44:07.561Z,2.07
2017-10-26T07:46:35.701Z,2.00
2017-10-26T07:49:03.833Z,1.73
2017-10-26T07:51:32.707Z,3.80
2017-10-26T07:54:00.850Z,1.90
2017-10-26T07:56:29.002Z,4.57
2017-10-26T07:58:57.128Z,2.08
2017-10-26T08:01:25.267Z,2.90
2017-10-26T08:03:53.388Z,2.95
2017-10-26T08:06:22.711Z,1.42
2017-10-26T08:08:50.860Z,2.80
2017-10-26T08:11:19.742Z,1.90
2017-10-26T08:13:47.874Z,1.70
2017-10-26T08:16:15.987Z,4.43
2017-10-26T08:18:44.897Z,2.62
2017-10-26T08:21:13.790Z,2.65
2017-10-26T08:23:41.918Z,2.92
2017-10-26T08:26:10.045Z,3.30
2017-10-26T08:28:39.171Z,1.50
2017-10-26T08:31:07.301Z,1.60
2017-10-26T08:33:35.413Z,2.50
2017-10-26T08:36:04.319Z,2.75
2017-10-26T08:38:32.414Z,1.90
2017-10-26T08:41:01.303Z,2.62
2017-10-26T08:43:29.463Z,3.85
2017-10-26T08:45:58.364Z,2.00
2017-10-26T08:48:27.251Z,1.90
2017-10-26T08:50:55.716Z,3.17
2017-10-26T08:53:24.615Z,1.48
2017-10-26T08:55:53.509Z,1.42
2017-10-26T08:58:22.432Z,1.77
2017-10-26T09:00:50.548Z,1.50
2017-10-26T09:03:18.683Z,1.90
2017-10-26T09:05:46.804Z,1.12
2017-10-26T09:08:15.701Z,2.20
2017-10-26T09:10:44.595Z,1.58
2017-10-26T09:13:13.547Z,1.20
2017-10-26T09:15:42.694Z,1.25
2017-10-26T09:18:11.582Z,1.83
2017-10-26T09:20:39.739Z,1.40
2017-10-26T09:23:07.857Z,2.70
2017-10-26T09:25:35.984Z,2.65
2017-10-26T09:28:04.871Z,2.27
2017-10-26T09:30:33.771Z,3.72
2017-10-26T09:33:08.206Z,1.20
2017-10-26T09:35:36.355Z,2.05
2017-10-26T09:38:04.460Z,3.00
2017-10-26T09:40:32.599Z,3.55
2017-10-26T09:43:01.514Z,4.20
2017-10-26T09:45:30.391Z,1.83
2017-10-26T09:47:59.309Z,1.90
2017-10-26T09:50:27.431Z,8.20
2017-10-26T09:52:55.567Z,2.30
2017-10-26T09:55:23.711Z,2.73
2017-10-26T09:57:51.854Z,3.30
2017-10-26T10:00:20.787Z,3.53
2017-10-26T10:02:48.896Z,6.90
2017-10-26T10:05:17.032Z,5.50
2017-10-26T10:07:45.164Z,3.27
2017-10-26T10:10:14.095Z,7.07
2017-10-26T10:12:42.215Z,3.63
2017-10-26T10:15:10.345Z,3.30
2017-10-26T10:17:38.480Z,4.40
2017-10-26T10:20:06.586Z,4.20
2017-10-26T10:22:34.738Z,3.57
2017-10-26T10:25:02.869Z,5.60
2017-10-26T10:27:30.998Z,5.53
2017-10-26T10:29:59.168Z,5.10
2017-10-26T10:32:27.295Z,3.03
2017-10-26T10:34:55.454Z,3.50
2017-10-26T10:37:23.577Z,2.60
2017-10-26T10:39:51.739Z,2.50
2017-10-26T10:42:19.876Z,4.27
2017-10-26T10:44:47.996Z,2.60
2017-10-26T10:47:16.150Z,3.10
2017-10-26T10:49:45.026Z,3.80
2017-10-26T10:52:13.154Z,4.63
2017-10-26T10:54:41.260Z,3.33
2017-10-26T10:57:10.190Z,2.97
2017-10-26T10:59:44.079Z,2.80
2017-10-26T11:02:12.987Z,2.30
2017-10-26T11:04:41.120Z,2.60
2017-10-26T11:07:09.224Z,2.90
2017-10-26T11:09:37.377Z,2.30
2017-10-26T11:12:06.289Z,3.30
2017-10-26T11:14:35.232Z,2.97
2017-10-26T11:17:03.397Z,4.97
2017-10-26T11:19:31.539Z,3.20
2017-10-26T11:21:59.710Z,2.20
2017-10-26T11:24:27.815Z,3.57
2017-10-26T11:26:55.978Z,2.63
2017-10-26T11:29:24.375Z,2.83
2017-10-26T11:31:52.505Z,3.53
2017-10-26T11:34:20.651Z,2.93
2017-10-26T11:36:49.543Z,3.50
2017-10-26T11:39:17.677Z,2.67
2017-10-26T11:41:45.793Z,3.28
2017-10-26T11:44:13.915Z,2.73
2017-10-26T11:46:43.555Z,3.20
2017-10-26T11:49:11.661Z,3.97
2017-10-26T11:51:39.788Z,2.47
2017-10-26T11:54:07.901Z,8.20
2017-10-26T11:56:36.020Z,2.40
2017-10-26T11:59:04.249Z,3.70
2017-10-26T12:01:33.186Z,5.53
2017-10-26T12:04:01.301Z,2.57
2017-10-26T12:06:29.433Z,1.93
2017-10-26T12:08:57.550Z,4.53
2017-10-26T12:11:25.668Z,5.13
2017-10-26T12:13:53.801Z,2.90
2017-10-26T12:16:21.921Z,3.77
2017-10-26T12:18:50.063Z,2.70
2017-10-26T12:21:18.179Z,6.73
2017-10-26T12:23:47.089Z,4.30
2017-10-26T12:26:15.978Z,2.60
2017-10-26T12:28:44.115Z,8.17
2017-10-26T12:31:12.261Z,2.73
2017-10-26T12:33:40.390Z,3.47
2017-10-26T12:36:08.594Z,3.20
2017-10-26T12:38:36.763Z,2.90
2017-10-26T12:41:04.917Z,2.53
2017-10-26T12:43:33.810Z,4.00
2017-10-26T12:46:01.935Z,3.30
2017-10-26T12:48:30.055Z,7.60
2017-10-26T12:50:58.174Z,2.40
2017-10-26T12:53:26.337Z,2.60
2017-10-26T12:55:54.497Z,2.70
2017-10-26T12:58:22.611Z,2.30
2017-10-26T13:00:51.539Z,3.43
2017-10-26T13:03:19.652Z,5.03
2017-10-26T13:05:47.765Z,2.63
2017-10-26T13:08:15.893Z,3.10
2017-10-26T13:10:44.307Z,9.87
2017-10-26T13:13:13.197Z,4.87
2017-10-26T13:15:42.118Z,4.90
2017-10-26T13:18:11.113Z,3.83
2017-10-26T13:20:39.239Z,11.70
2017-10-26T13:23:08.134Z,4.13
2017-10-26T13:25:37.020Z,4.10
2017-10-26T13:28:05.904Z,2.13
2017-10-26T13:30:34.802Z,3.80
2017-10-26T13:33:03.715Z,5.20
2017-10-26T13:35:32.595Z,5.23
2017-10-26T13:38:01.502Z,8.13
2017-10-26T13:40:29.621Z,2.30
2017-10-26T13:42:57.820Z,3.83
2017-10-26T13:45:25.950Z,3.43
2017-10-26T13:47:54.077Z,4.53
2017-10-26T13:50:22.976Z,5.70
2017-10-26T13:52:51.118Z,2.70
2017-10-26T13:55:19.224Z,2.57
2017-10-26T13:57:47.960Z,4.85
2017-10-26T14:00:16.090Z,4.43
2017-10-26T14:02:44.205Z,4.23
2017-10-26T14:05:12.328Z,2.93
2017-10-26T14:07:40.487Z,3.53
2017-10-26T14:10:09.371Z,4.23
2017-10-26T14:12:38.261Z,3.00
2017-10-26T14:15:07.174Z,8.83
2017-10-26T14:17:35.354Z,3.23
2017-10-26T14:20:03.476Z,2.73
2017-10-26T14:22:31.605Z,7.40
2017-10-26T14:24:59.767Z,8.30
2017-10-26T14:27:27.897Z,5.60
2017-10-26T14:29:56.011Z,5.37
2017-10-26T14:32:24.130Z,2.30
2017-10-26T14:34:52.246Z,3.57
2017-10-26T14:37:20.365Z,3.37
2017-10-26T14:39:48.537Z,5.17
2017-10-26T14:42:16.658Z,2.90
2017-10-26T14:44:45.509Z,2.53
2017-10-26T14:47:13.644Z,3.80
2017-10-26T14:49:41.763Z,3.63
2017-10-26T14:52:10.676Z,2.90
2017-10-26T14:54:38.833Z,4.37
2017-10-26T14:57:08.901Z,2.80
2017-10-26T14:59:37.796Z,3.70
2017-10-26T15:02:05.933Z,4.00
2017-10-26T15:04:34.102Z,3.70
2017-10-26T15:07:02.975Z,2.53
2017-10-26T15:09:31.896Z,5.90
2017-10-26T15:12:00.005Z,3.17
2017-10-26T15:14:28.171Z,2.70
2017-10-26T15:16:56.291Z,3.83
2017-10-26T15:19:24.434Z,3.33
2017-10-26T15:21:52.562Z,4.90
2017-10-26T15:24:20.729Z,5.33
2017-10-26T15:26:48.833Z,4.47
2017-10-26T15:29:16.976Z,5.00
2017-10-26T15:31:45.102Z,2.60
2017-10-26T15:34:13.286Z,3.67
2017-10-26T15:36:42.211Z,3.30
2017-10-26T15:39:10.336Z,8.07
2017-10-26T15:41:38.555Z,3.10
2017-10-26T15:44:06.647Z,2.77
2017-10-26T15:46:34.788Z,3.83
2017-10-26T15:49:02.947Z,6.60
2017-10-26T15:51:31.850Z,2.40
2017-10-26T15:54:00.715Z,2.60
2017-10-26T15:56:29.603Z,4.40
2017-10-26T15:58:57.718Z,5.63
2017-10-26T16:01:25.845Z,3.43
2017-10-26T16:03:54.885Z,7.23
2017-10-26T16:06:23.028Z,6.33
2017-10-26T16:08:51.902Z,4.70
2017-10-26T16:11:20.784Z,5.20
2017-10-26T16:13:49.710Z,3.57
2017-10-26T16:16:17.882Z,3.43
2017-10-26T16:18:46.044Z,6.00
2017-10-26T16:21:14.228Z,4.77
2017-10-26T16:23:42.364Z,3.10
2017-10-26T16:26:10.476Z,4.90
2017-10-26T16:28:38.668Z,5.77
2017-10-26T16:31:06.932Z,9.07
2017-10-26T16:33:35.823Z,10.33
2017-10-26T16:36:03.955Z,9.17
2017-10-26T16:38:32.868Z,8.30
2017-10-26T16:41:01.025Z,9.53
2017-10-26T16:43:29.930Z,9.60
2017-10-26T16:45:58.079Z,7.37
2017-10-26T16:48:27.094Z,9.00
2017-10-26T16:50:55.279Z,11.93
2017-10-26T16:53:23.399Z,11.33
2017-10-26T16:55:51.537Z,12.50
2017-10-26T16:58:19.700Z,13.77
2017-10-26T17:00:47.829Z,12.30
2017-10-26T17:03:16.752Z,13.30
2017-10-26T17:05:44.893Z,13.97
2017-10-26T17:08:13.860Z,12.57
2017-10-26T17:10:42.781Z,12.73
2017-10-26T17:13:10.915Z,13.90
2017-10-26T17:15:39.084Z,18.30
2017-10-26T17:18:07.206Z,14.80
2017-10-26T17:20:36.137Z,15.90
2017-10-26T17:23:04.296Z,12.73
2017-10-26T17:25:32.413Z,12.37
2017-10-26T17:28:00.541Z,14.10
2017-10-26T17:30:28.700Z,13.60
2017-10-26T17:32:56.829Z,16.93
2017-10-26T17:35:24.993Z,22.17
2017-10-26T17:37:53.102Z,14.77
2017-10-26T17:40:21.256Z,15.43
2017-10-26T17:42:50.169Z,17.73
2017-10-26T17:45:18.333Z,18.60
2017-10-26T17:47:47.248Z,15.33
2017-10-26T17:50:15.385Z,21.70
2017-10-26T17:52:43.572Z,16.27
2017-10-26T17:55:12.490Z,18.80
2017-10-26T17:57:40.710Z,16.20
2017-10-26T18:00:08.871Z,17.40
2017-10-26T18:02:37.016Z,16.57
2017-10-26T18:05:05.168Z,21.27
2017-10-26T18:07:33.308Z,22.20
2017-10-26T18:10:02.238Z,22.60
2017-10-26T18:12:30.371Z,18.80
2017-10-26T18:14:59.326Z,18.87
2017-10-26T18:17:27.477Z,16.37
2017-10-26T18:19:55.615Z,14.80
2017-10-26T18:22:24.538Z,18.25
2017-10-26T18:24:52.701Z,17.60
2017-10-26T18:27:21.619Z,16.70
2017-10-26T18:29:49.797Z,17.75
2017-10-26T18:32:17.950Z,15.00
2017-10-26T18:34:46.067Z,15.23
2017-10-26T18:37:14.252Z,16.55
2017-10-26T18:39:43.152Z,18.55
2017-10-26T18:42:12.068Z,17.42
2017-10-26T18:44:40.267Z,17.35
2017-10-26T18:47:08.404Z,19.20
2017-10-26T18:49:36.621Z,20.95
2017-10-26T18:52:04.778Z,20.20
2017-10-26T18:54:32.955Z,22.42
2017-10-26T18:57:01.096Z,19.75
2017-10-26T18:59:29.236Z,22.23
2017-10-26T19:01:57.385Z,23.83
2017-10-26T19:04:25.533Z,24.40
2017-10-26T19:06:53.683Z,23.87
2017-10-26T19:09:22.587Z,23.58
2017-10-26T19:11:50.755Z,31.83
2017-10-26T19:14:18.975Z,27.77
2017-10-26T19:16:47.525Z,26.30
2017-10-26T19:19:15.877Z,24.73
2017-10-26T19:21:44.028Z,24.42
2017-10-26T19:24:12.978Z,21.12
2017-10-26T19:26:41.129Z,23.12
2017-10-26T19:29:09.299Z,21.17
2017-10-26T19:31:38.487Z,23.23
2017-10-26T19:34:06.671Z,23.38
2017-10-26T19:36:34.811Z,21.25
2017-10-26T19:39:02.952Z,22.63
2017-10-26T19:41:31.738Z,22.73
2017-10-26T19:44:04.714Z,20.30
2017-10-26T19:46:32.872Z,17.67
2017-10-26T19:49:01.006Z,21.50
2017-10-26T19:51:29.921Z,21.23
2017-10-26T19:53:58.110Z,17.03
2017-10-26T19:56:26.255Z,18.02
2017-10-26T19:58:55.190Z,16.77
2017-10-26T20:01:23.321Z,14.60
2017-10-26T20:03:51.483Z,17.30
2017-10-26T20:06:20.415Z,16.80
2017-10-26T20:08:48.545Z,20.17
2017-10-26T20:11:17.460Z,13.40
2017-10-26T20:13:45.611Z,14.00
2017-10-26T20:16:14.520Z,16.37
2017-10-26T20:18:42.687Z,14.90
2017-10-26T20:21:10.835Z,15.75
2017-10-26T20:23:39.780Z,17.62
2017-10-26T20:26:07.940Z,14.00
2017-10-26T20:28:36.053Z,17.37
2017-10-26T20:31:04.195Z,14.67
2017-10-26T20:33:32.370Z,17.12
2017-10-26T20:36:00.561Z,15.48
2017-10-26T20:38:28.711Z,18.65
2017-10-26T20:40:57.325Z,19.95
2017-10-26T20:43:26.571Z,23.65
2017-10-26T20:45:55.784Z,24.92
2017-10-26T20:48:26.789Z,12.95
2017-10-26T20:51:00.719Z,12.25
2017-10-26T20:53:34.394Z,11.63
2017-10-26T20:56:08.243Z,11.82
2017-10-26T20:58:42.107Z,20.92
2017-10-26T21:01:16.725Z,15.35
2017-10-26T21:03:50.629Z,12.57
2017-10-26T21:06:19.512Z,17.07
2017-10-26T21:08:53.341Z,14.32
2017-10-26T21:11:27.999Z,12.30
2017-10-26T21:14:01.624Z,12.43
2017-10-26T21:16:29.776Z,11.68
2017-10-26T21:18:57.925Z,14.95
2017-10-26T21:21:26.088Z,18.75
2017-10-26T21:23:54.976Z,24.67
2017-10-26T21:26:23.915Z,27.70
2017-10-26T21:28:52.066Z,26.00
2017-10-26T21:31:20.971Z,24.98
2017-10-26T21:33:52.797Z,25.50
2017-10-26T21:36:22.412Z,23.07
2017-10-26T21:38:50.522Z,14.38
2017-10-26T21:41:18.691Z,20.73
2017-10-26T21:43:46.825Z,14.57
2017-10-26T21:46:15.013Z,16.60
2017-10-26T21:48:43.239Z,14.90
2017-10-26T21:51:11.435Z,9.93
2017-10-26T21:53:40.332Z,9.77
2017-10-26T21:56:08.690Z,10.02
2017-10-26T21:58:37.628Z,10.50
2017-10-26T22:01:05.779Z,6.72
2017-10-26T22:03:33.936Z,8.43
2017-10-26T22:06:02.808Z,8.10
2017-10-26T22:08:31.700Z,7.30
2017-10-26T22:10:59.902Z,9.23
2017-10-26T22:13:28.172Z,9.43
2017-10-26T22:15:56.326Z,6.95
2017-10-26T22:18:24.444Z,6.50
2017-10-26T22:20:52.567Z,6.67
2017-10-26T22:23:21.470Z,6.37
2017-10-26T22:25:50.363Z,9.55
2017-10-26T22:28:19.360Z,7.82
2017-10-26T22:30:47.484Z,8.70
2017-10-26T22:33:15.700Z,8.10
2017-10-26T22:35:44.581Z,7.37
2017-10-26T22:38:13.487Z,8.40
2017-10-26T22:40:41.658Z,7.00
2017-10-26T22:43:10.565Z,6.75
2017-10-26T22:45:38.882Z,7.30
2017-10-26T22:48:07.007Z,9.90
2017-10-26T22:50:35.142Z,8.63
2017-10-26T22:53:03.311Z,8.38
2017-10-26T22:55:31.431Z,8.80
2017-10-26T22:57:59.552Z,5.93
2017-10-26T23:00:27.671Z,6.27
2017-10-26T23:02:55.799Z,5.78
2017-10-26T23:05:24.050Z,7.40
2017-10-26T23:07:52.172Z,6.85
2017-10-26T23:10:20.321Z,7.45
2017-10-26T23:12:48.444Z,5.40
2017-10-26T23:15:16.568Z,5.87
2017-10-26T23:17:44.684Z,6.78
2017-10-26T23:20:12.858Z,5.75
2017-10-26T23:22:41.355Z,5.72
2017-10-26T23:25:10.388Z,5.93
2017-10-26T23:27:38.511Z,7.95
2017-10-26T23:30:06.624Z,7.68
2017-10-26T23:32:34.763Z,6.32
2017-10-26T23:35:02.905Z,5.82
2017-10-26T23:37:31.043Z,6.10
2017-10-26T23:39:59.267Z,4.50
2017-10-26T23:42:28.147Z,4.43
2017-10-26T23:44:56.282Z,5.87
2017-10-26T23:47:25.197Z,4.72
2017-10-26T23:49:54.114Z,5.03
2017-10-26T23:52:22.235Z,4.75
2017-10-26T23:54:51.136Z,5.78
2017-10-26T23:57:19.288Z,5.50
2017-10-26T23:59:47.424Z,5.25
